Terminal Aerodrome Forecast
Issued by NWS

Home | Current Version | Previous Version | Text Only | Print | Product List | Glossary On
Versions: 1 2 3 4 5 6 7 8 9 10 11 12 13
599
FTUS43 KIND 271120
TAFBMG
TAF
KBMG 271120Z 2712/2812 23013G22KT P6SM VCSH OVC020
     FM271300 24013KT P6SM OVC014
     FM271700 25011KT P6SM BKN020
     FM272200 24010KT P6SM BKN040
     FM272300 23008KT P6SM SCT045
     FM280200 21004KT P6SM SCT045 BKN100
      AMD LTD TO CLD VIS AND WIND TIL 271300=

USA.gov is the U.S. government's official web portal to all federal, state and local government web resources and services.